Flight Track Log - Related Links

Times and Time Zones

All times are in EST time to prevent confusion due to time zone crossing. See the BOE1 flight status page for this flight to view local times or setup timezone preferences in your user account.

Time Position Orientation Groundspeed Altitude Reporting Facility
EST Latitude Longitude Course Direction KTS MPH feet Rate Location/Type
Fri 03:12:01 PM 47.5497 -122.3210 329° Northwest 179 206 1,200  Level Seattle Center
Fri 03:12:19 PM 47.5642 -122.3340 315° West 185 213 1,900 2,791 Climbing Seattle Center
Fri 03:13:10 PM 47.6008 -122.3720 310° West 21,000 2,865 Climbing Seattle Center
Fri 03:14:10 PM 47.6486 -122.4580 11° North 252 290 7,200 -6,000 Descending Seattle Center
Fri 03:15:10 PM 47.7219 -122.4370 27° Northeast 223 257 9,000 1,400 Climbing Seattle Center
Fri 03:16:10 PM 47.7942 -122.3820 29° Northeast 248 285 10,000 1,950 Climbing Seattle Center
Fri 03:17:10 PM 47.8661 -122.3230 26° Northeast 266 306 12,900 2,300 Climbing Seattle Center
Fri 03:18:10 PM 47.9422 -122.2680 20° North 280 322 14,600 1,850 Climbing Seattle Center
Fri 03:19:10 PM 48.0411 -122.2140 41° Northeast 327 376 16,600 2,050 Climbing Seattle Center
Fri 03:20:10 PM 48.1181 -122.1120 91° East 359 413 18,700 2,200 Climbing Seattle Center
Fri 03:21:10 PM 48.1169 -121.9500 94° East 332 382 21,000 1,150 Climbing Seattle Center
Fri 03:22:10 PM 48.1094 -121.7850 93° East 355 409 21,000  Level Seattle Center
Fri 03:23:10 PM 48.1036 -121.6240 94° East 374 430 21,000 -50 Level Seattle Center
Fri 03:24:10 PM 48.0956 -121.4650 94° East 386 444 20,900 450 Descending Seattle Center
Fri 03:25:10 PM 48.0875 -121.2970 96° East 391 450 21,900 550 Climbing Seattle Center
Fri 03:26:10 PM 48.0769 -121.1360 94° East 391 450 22,000 100 Climbing Seattle Center
Fri 03:27:10 PM 48.0683 -120.9710 97° East 391 450 22,100 100 Climbing Seattle Center
Fri 03:28:10 PM 48.0553 -120.8060 91° East 391 450 22,200  Climbing Seattle Center
Fri 03:29:10 PM 48.0525 -120.6420 98° East 391 450 22,100 -50 Descending Seattle Center
Fri 03:30:10 PM 48.0369 -120.4770 97° East 391 450 22,100  Level Seattle Center
Fri 03:31:10 PM 48.0231 -120.3120 95° East 391 450 22,100  Level Seattle Center
Fri 03:32:10 PM 48.0133 -120.1510 95° East 391 450 22,100 -50 Level Seattle Center
Fri 03:33:10 PM 48.0033 -119.9840 96° East 391 450 22,000 -50 Descending Seattle Center
Fri 03:34:10 PM 47.9911 -119.8230 98° East 391 450 22,000  Level Seattle Center
Fri 03:35:10 PM 47.9764 -119.6590 98° East 391 450 22,000 -50 Level Seattle Center
Fri 03:36:10 PM 47.9614 -119.4920 96° East 391 450 21,900 100 Descending Seattle Center
Fri 03:37:10 PM 47.9483 -119.3120 96° East 409 471 22,200 250 Climbing Seattle Center
Fri 03:38:10 PM 47.9350 -119.1140 97° East 448 516 22,400 100 Climbing Seattle Center
Fri 03:39:10 PM 47.9192 -118.9100 98° East 474 545 22,400  Level Seattle Center
Fri 03:40:10 PM 47.9008 -118.7090 101° East 487 560 22,400 -100 Level Seattle Center
Fri 03:41:10 PM 47.8739 -118.5120 101° East 487 560 22,200 -150 Descending Seattle Center
Fri 03:42:10 PM 47.8467 -118.3120 105° East 487 560 22,100 -150 Descending Seattle Center
Fri 03:43:10 PM 47.8128 -118.1180 105° East 487 560 21,900 -200 Descending Seattle Center
Fri 03:44:10 PM 47.7789 -117.9250 99° East 487 560 21,700 -50 Descending Seattle Center
Fri 03:45:10 PM 47.7567 -117.7250 93° East 487 560 21,800 100 Climbing Seattle Center
Fri 03:46:10 PM 47.7489 -117.5250 90° East 487 560 21,900 50 Climbing Seattle Center
Fri 03:47:10 PM 47.7492 -117.3280 91° East 481 554 21,900  Level Seattle Center
Fri 03:48:10 PM 47.7469 -117.1280 38° Northeast 474 545 21,900  Level Seattle Center
Fri 03:49:10 PM 47.8481 -117.0080 324° Northwest 420 483 21,900  Level Seattle Center
Fri 03:50:10 PM 47.9483 -117.1170 275° West 310 357 21,900  Level Seattle Center
Fri 03:51:10 PM 47.9589 -117.3120 272° West 317 365 21,900  Level Seattle Center
Fri 03:52:10 PM 47.9628 -117.5100 274° West 395 455 21,900  Level Seattle Center
Fri 03:53:10 PM 47.9708 -117.7080 273° West 445 512 21,900 50 Level Seattle Center
Fri 03:54:10 PM 47.9781 -117.9060 274° West 474 545 22,000 50 Climbing Seattle Center
Fri 03:55:10 PM 47.9875 -118.1040 273° West 480 552 22,000  Level Seattle Center
Fri 03:56:10 PM 47.9942 -118.2990 275° West 480 552 22,000  Level Seattle Center
Fri 03:57:10 PM 48.0069 -118.5000 275° West 480 552 22,000  Level Seattle Center
Fri 03:58:10 PM 48.0194 -118.7100 275° West 492 566 22,000  Level Seattle Center
Fri 03:59:10 PM 48.0314 -118.9140 274° West 498 573 22,000 50 Level Seattle Center
Fri 04:00:10 PM 48.0411 -119.1220 275° West 498 573 22,100  Climbing Seattle Center
Fri 04:01:10 PM 48.0525 -119.3300 272° West 498 573 22,000  Descending Seattle Center
Fri 04:02:22 PM 48.0575 -119.5810 272° West 503 579 22,100  Climbing Seattle Center
Fri 04:03:22 PM 48.0617 -119.7890 272° West 503 579 22,000 -50 Descending Seattle Center
Fri 04:04:22 PM 48.0656 -120.0000 271° West 503 579 22,000  Level Seattle Center
Fri 04:05:22 PM 48.0672 -120.2070 271° West 503 579 22,000  Level Seattle Center
Fri 04:06:22 PM 48.0683 -120.4190 270° West 503 579 22,000  Level Seattle Center
Fri 04:07:22 PM 48.0692 -120.6260 272° West 503 579 22,000 -50 Level Seattle Center
Fri 04:08:22 PM 48.0739 -120.8250 273° West 498 573 21,900 -50 Descending Seattle Center
Fri 04:09:22 PM 48.0803 -121.0080 272° West 471 542 21,900  Level Seattle Center
Fri 04:10:22 PM 48.0847 -121.1790 307° West 437 503 21,900 100 Level Seattle Center
Fri 04:11:22 PM 48.1517 -121.3140 20° North 384 442 22,100 100 Climbing Seattle Center
Fri 04:12:22 PM 48.2522 -121.2580 102° East 265 305 22,100 900 Level Seattle Center
Fri 04:13:22 PM 48.2292 -121.0990 116° Southeast 199 229 23,900 2,200 Climbing Seattle Center
Fri 04:14:22 PM 48.1828 -120.9550 116° Southeast 263 303 26,500 2,200 Climbing Seattle Center
Fri 04:15:22 PM 48.1342 -120.8080 105° East 338 389 28,300 1,700 Climbing Seattle Center
Fri 04:16:22 PM 48.1064 -120.6520 103° East 372 428 29,900 850 Climbing Seattle Center
Fri 04:17:22 PM 48.0806 -120.4840 98° East 390 449 30,000 50 Climbing Seattle Center
Fri 04:18:22 PM 48.0628 -120.2940 96° East 428 493 30,000  Level Seattle Center
Fri 04:19:22 PM 48.0489 -120.0960 99° East 464 534 30,000 50 Level Seattle Center
Fri 04:20:22 PM 48.0283 -119.8970 96° East 478 550 30,100 100 Climbing Seattle Center
Fri 04:21:22 PM 48.0139 -119.6990 97° East 483 556 30,200 50 Climbing Seattle Center
Fri 04:22:22 PM 47.9969 -119.5010 97° East 483 556 30,200 -100 Level Seattle Center
Fri 04:23:22 PM 47.9797 -119.2990 95° East 483 556 30,000 -100 Descending Seattle Center
Fri 04:24:22 PM 47.9683 -119.1040 96° East 483 556 30,000  Level Seattle Center
Fri 04:25:22 PM 47.9544 -118.9000 95° East 483 556 30,000 -100 Level Seattle Center
Fri 04:26:22 PM 47.9425 -118.7020 95° East 483 556 29,800 -100 Descending Seattle Center
Fri 04:27:22 PM 47.9300 -118.5020 96° East 483 556 29,800 100 Level Seattle Center
Fri 04:28:22 PM 47.9150 -118.3010 95° East 483 556 30,000 100 Climbing Seattle Center
Fri 04:29:22 PM 47.9019 -118.1000 96° East 483 556 30,000 -50 Level Seattle Center
Fri 04:30:22 PM 47.8867 -117.9000 97° East 483 556 29,900 -50 Descending Seattle Center
Fri 04:31:23 PM 47.8686 -117.6930 100° East 483 556 29,900 200 Level Seattle Center
Fri 04:32:22 PM 47.8439 -117.4870 99° East 494 568 30,300 303 Climbing Seattle Center
Fri 04:33:22 PM 47.8208 -117.2750 101° East 509 586 30,500 50 Climbing Seattle Center
Fri 04:34:22 PM 47.7961 -117.0910 96° East 509 586 30,400 -100 Descending Seattle Center
Fri 04:35:22 PM 47.7808 -116.8910 98° East 518 596 30,300 -100 Descending Seattle Center
Fri 04:36:22 PM 47.7583 -116.6610 81° East 523 602 30,200 -100 Descending Seattle Center
Fri 04:37:22 PM 47.7797 -116.4530 12° North 509 586 30,100 -100 Descending Seattle Center
Fri 04:38:22 PM 47.9117 -116.4110 301° West 406 467 30,000 -50 Descending Seattle Center
Fri 04:39:22 PM 47.9789 -116.5800 265° West 288 331 30,000  Level Seattle Center
Fri 04:40:22 PM 47.9661 -116.8130 267° West 362 417 30,000  Level Seattle Center
Fri 04:41:22 PM 47.9586 -117.0110 266° West 416 479 30,000 -50 Level Seattle Center
Fri 04:42:22 PM 47.9483 -117.2070 265° West 454 522 29,900  Descending Seattle Center
Fri 04:43:22 PM 47.9358 -117.4060 265° West 479 551 30,000  Climbing Seattle Center
Fri 04:44:22 PM 47.9231 -117.6010 262° West 487 560 29,900 -50 Descending Seattle Center
Fri 04:45:22 PM 47.9056 -117.7970 263° West 482 555 29,900  Level Seattle Center
Fri 04:46:22 PM 47.8900 -117.9920 263° West 482 555 29,900  Level Seattle Center
Fri 04:47:22 PM 47.8742 -118.1880 266° West 482 555 29,900 50 Level Seattle Center
Fri 04:48:22 PM 47.8642 -118.3830 278° West 482 555 30,000 50 Climbing Seattle Center
Fri 04:49:22 PM 47.8831 -118.5800 284° West 476 548 30,000 -50 Level Seattle Center
Fri 04:50:22 PM 47.9161 -118.7770 290° West 481 554 29,900 -50 Descending Seattle Center
Fri 04:51:22 PM 47.9611 -118.9620 291° West 481 554 29,900  Level Seattle Center
Fri 04:52:22 PM 48.0100 -119.1510 285° West 486 559 29,900 50 Level Seattle Center
Fri 04:53:22 PM 48.0442 -119.3450 276° West 486 559 30,000 50 Climbing Seattle Center
Fri 04:54:22 PM 48.0572 -119.5440 270° West 486 559 30,000 50 Level Seattle Center
Fri 04:55:22 PM 48.0575 -119.7480 270° West 486 559 30,100 -50 Climbing Seattle Center
Fri 04:56:22 PM 48.0575 -119.9560 266° West 491 565 29,900 -100 Descending Seattle Center
Fri 04:57:22 PM 48.0486 -120.1610 269° West 497 572 29,900 50 Level Seattle Center
Fri 04:58:22 PM 48.0458 -120.3660 267° West 497 572 30,000 100 Climbing Seattle Center
Fri 04:59:22 PM 48.0383 -120.5730 270° West 497 572 30,100 50 Climbing Seattle Center
Fri 05:00:22 PM 48.0389 -120.7780 276° West 497 572 30,100  Level Seattle Center
Fri 05:01:22 PM 48.0536 -120.9830 280° West 497 572 30,100  Level Seattle Center
Fri 05:02:22 PM 48.0783 -121.1880 279° West 502 578 30,100 -150 Level Seattle Center
Fri 05:03:22 PM 48.0969 -121.3750 279° West 509 586 29,800 -150 Descending Seattle Center
Fri 05:04:22 PM 48.1189 -121.5870 277° West 509 586 29,800 100 Level Seattle Center
Fri 05:05:22 PM 48.1342 -121.7890 270° West 509 586 30,000 150 Climbing Seattle Center
Fri 05:06:22 PM 48.1347 -122.0010 256° West 504 580 30,100  Climbing Seattle Center
Fri 05:07:22 PM 48.1039 -122.1890 188° South 483 556 30,000 400 Descending Seattle Center
Fri 05:08:22 PM 47.9911 -122.2140 110° East 370 426 30,900 1,000 Climbing Seattle Center
Fri 05:09:22 PM 47.9486 -122.0420 76° East 247 284 32,000 1,250 Climbing Seattle Center
Fri 05:10:22 PM 47.9814 -121.8390 76° East 327 376 33,400 1,450 Climbing Seattle Center
Fri 05:11:22 PM 48.0139 -121.6420 77° East 391 450 34,900 800 Climbing Seattle Center
Fri 05:12:22 PM 48.0439 -121.4480 85° East 451 519 35,000 50 Climbing Seattle Center
Fri 05:13:22 PM 48.0547 -121.2460 90° East 470 541 35,000 -50 Level Seattle Center
Fri 05:14:22 PM 48.0550 -121.0510 95° East 475 547 34,900 -50 Descending Seattle Center
Fri 05:15:22 PM 48.0425 -120.8340 98° East 475 547 34,900  Level Seattle Center
Fri 05:16:22 PM 48.0253 -120.6410 100° East 480 552 34,900  Level Seattle Center
Fri 05:17:22 PM 48.0036 -120.4490 102° East 480 552 34,900 50 Level Seattle Center
Fri 05:18:23 PM 47.9756 -120.2590 92° East 470 541 35,000  Climbing Seattle Center
Fri 05:19:22 PM 47.9700 -120.0640 91° East 470 541 34,900 -50 Descending Seattle Center
Fri 05:20:22 PM 47.9681 -119.8660 92° East 470 541 34,900  Level Seattle Center
Fri 05:21:22 PM 47.9639 -119.6680 90° East 470 541 34,900  Level Seattle Center
Fri 05:22:22 PM 47.9636 -119.4730 90° East 470 541 34,900  Level Seattle Center
Fri 05:23:22 PM 47.9628 -119.2750 97° East 470 541 34,900 50 Level Seattle Center
Fri 05:24:22 PM 47.9472 -119.0740 96° East 481 554 35,000 100 Climbing Seattle Center
Fri 05:25:22 PM 47.9333 -118.8640 97° East 491 565 35,100  Climbing Seattle Center
Fri 05:26:22 PM 47.9169 -118.6540 94° East 503 579 35,000 50 Descending Seattle Center
Fri 05:27:22 PM 47.9064 -118.4400 95° East 508 585 35,200 100 Climbing Seattle Center
Fri 05:28:22 PM 47.8933 -118.2300 96° East 513 590 35,200 -100 Level Seattle Center
Fri 05:29:22 PM 47.8781 -118.0180 95° East 518 596 35,000 -50 Descending Seattle Center
Fri 05:30:22 PM 47.8642 -117.8050 97° East 518 596 35,100  Climbing Seattle Center
Fri 05:31:22 PM 47.8481 -117.5980 97° East 518 596 35,000 -50 Descending Seattle Center
Fri 05:32:22 PM 47.8294 -117.3860 98° East 513 590 35,000 50 Level Seattle Center
Fri 05:33:22 PM 47.8083 -117.1770 99° East 519 597 35,100 100 Climbing Seattle Center
Fri 05:34:22 PM 47.7847 -116.9650 98° East 514 592 35,200 50 Climbing Seattle Center
Fri 05:35:22 PM 47.7653 -116.7720 96° East 525 604 35,200 -50 Level Seattle Center
Fri 05:36:22 PM 47.7492 -116.5560 96° East 520 598 35,100 -50 Descending Seattle Center
Fri 05:37:22 PM 47.7353 -116.3510 94° East 515 593 35,100 -50 Level Seattle Center
Fri 05:38:22 PM 47.7244 -116.1360 93° East 515 593 35,000 -50 Descending Seattle Center
Fri 05:39:22 PM 47.7156 -115.9200 69° East 515 593 35,000  Level Seattle Center
Fri 05:40:22 PM 47.7633 -115.7320 355° North 496 571 35,000  Level Seattle Center
Fri 05:41:22 PM 47.8889 -115.7470 288° West 372 428 35,000  Level Seattle Center
Fri 05:42:22 PM 47.9281 -115.9240 272° West 266 306 35,000  Level Seattle Center
Fri 05:43:22 PM 47.9319 -116.1150 272° West 333 383 35,000 50 Level Seattle Center
Fri 05:44:22 PM 47.9356 -116.3040 272° West 408 470 35,100 150 Climbing Seattle Center
Fri 05:45:22 PM 47.9389 -116.4930 272° West 439 505 35,300 50 Climbing Seattle Center
Fri 05:46:22 PM 47.9444 -116.6990 270° West 461 531 35,200 -150 Descending Seattle Center
Fri 05:47:22 PM 47.9453 -116.8880 273° West 461 531 35,000 -100 Descending Seattle Center
Fri 05:48:22 PM 47.9519 -117.0830 271° West 461 531 35,000 50 Level Seattle Center
Fri 05:49:22 PM 47.9542 -117.2780 272° West 466 536 35,100 50 Climbing Seattle Center
Fri 05:50:22 PM 47.9581 -117.4790 272° West 477 549 35,100 -50 Level Seattle Center
Fri 05:51:22 PM 47.9617 -117.6740 272° West 477 549 35,000 -50 Descending Seattle Center
Fri 05:52:22 PM 47.9672 -117.8720 271° West 477 549 35,000  Level Seattle Center
Fri 05:53:22 PM 47.9703 -118.0700 273° West 477 549 35,000 -50 Level Seattle Center
Fri 05:54:22 PM 47.9772 -118.2680 273° West 477 549 34,900  Descending Seattle Center
Fri 05:55:22 PM 47.9836 -118.4630 274° West 477 549 35,000 50 Climbing Seattle Center
Fri 05:56:22 PM 47.9939 -118.6640 273° West 477 549 35,000  Level Seattle Center
Fri 05:57:22 PM 48.0000 -118.8630 274° West 477 549 35,000 -50 Level Seattle Center
Fri 05:58:22 PM 48.0097 -119.0610 274° West 477 549 34,900 -50 Descending Seattle Center
Fri 05:59:22 PM 48.0189 -119.2620 275° West 477 549 34,900 50 Level Seattle Center
Fri 06:00:22 PM 48.0300 -119.4570 274° West 477 549 35,000 50 Climbing Seattle Center
Fri 06:01:22 PM 48.0389 -119.6490 273° West 477 549 35,000 700 Level Seattle Center
Fri 06:02:22 PM 48.0450 -119.8290 274° West 457 526 36,400 1,050 Climbing Seattle Center
Fri 06:03:22 PM 48.0533 -120.0030 273° West 437 503 37,100 850 Climbing Seattle Center
Fri 06:04:22 PM 48.0589 -120.1800 274° West 431 496 38,100 650 Climbing Seattle Center
Fri 06:05:22 PM 48.0667 -120.3590 274° West 431 496 38,400 250 Climbing Seattle Center
Fri 06:06:22 PM 48.0758 -120.5460 274° West 438 504 38,600 250 Climbing Seattle Center
Fri 06:07:22 PM 48.0850 -120.7350 275° West 451 519 38,900 450 Climbing Seattle Center
Fri 06:08:22 PM 48.0958 -120.9280 274° West 466 536 39,500 550 Climbing Seattle Center
Fri 06:09:22 PM 48.1042 -121.1210 274° West 471 542 40,000 250 Climbing Seattle Center
Fri 06:10:22 PM 48.1122 -121.3130 274° West 471 542 40,000 100 Level Seattle Center
Fri 06:11:22 PM 48.1200 -121.5030 272° West 466 536 40,200 150 Climbing Seattle Center
Fri 06:12:22 PM 48.1253 -121.7020 217° Southwest 466 536 40,300 -50 Climbing Seattle Center
Fri 06:13:22 PM 48.0364 -121.8010 144° Southeast 403 464 40,100 -150 Descending Seattle Center
Fri 06:14:22 PM 47.9422 -121.6980 91° East 308 354 40,000 -50 Descending Seattle Center
Fri 06:15:22 PM 47.9392 -121.5030 89° East 299 344 40,000 100 Level Seattle Center
Fri 06:16:22 PM 47.9417 -121.3080 91° East 400 460 40,200 100 Climbing Seattle Center
Fri 06:17:22 PM 47.9400 -121.1070 91° East 435 501 40,200 50 Level Seattle Center
Fri 06:18:22 PM 47.9378 -120.9090 92° East 459 528 40,300 50 Climbing Seattle Center
Fri 06:19:22 PM 47.9314 -120.6950 92° East 466 536 40,300 -50 Level Seattle Center
Fri 06:20:22 PM 47.9264 -120.4970 93° East 472 543 40,200 -50 Descending Seattle Center
Fri 06:21:22 PM 47.9192 -120.2990 94° East 478 550 40,200  Level Seattle Center
Fri 06:22:22 PM 47.9094 -120.1010 94° East 478 550 40,200 -50 Level Seattle Center
Fri 06:23:22 PM 47.8994 -119.9000 94° East 478 550 40,100 -50 Descending Seattle Center
Fri 06:24:22 PM 47.8911 -119.7020 88° East 478 550 40,100  Level Seattle Center
Fri 06:25:22 PM 47.8950 -119.5040 85° East 478 550 40,100  Level Seattle Center
Fri 06:26:22 PM 47.9067 -119.3000 87° East 478 550 40,100 -100 Level Seattle Center
Fri 06:27:22 PM 47.9142 -119.0930 89° East 484 557 39,900 -50 Descending Seattle Center
Fri 06:28:22 PM 47.9169 -118.8860 96° East 489 563 40,000 50 Climbing Seattle Center
Fri 06:29:22 PM 47.9028 -118.6820 97° East 494 568 40,000 50 Level Seattle Center
Fri 06:30:22 PM 47.8861 -118.4780 96° East 499 574 40,100 50 Climbing Seattle Center
Fri 06:31:22 PM 47.8711 -118.2710 97° East 499 574 40,100  Level Seattle Center
Fri 06:32:22 PM 47.8536 -118.0680 98° East 499 574 40,100  Level Seattle Center
Fri 06:33:22 PM 47.8339 -117.8610 98° East 499 574 40,100 50 Level Seattle Center
Fri 06:34:22 PM 47.8139 -117.6580 98° East 499 574 40,200 50 Climbing Seattle Center
Fri 06:35:22 PM 47.7933 -117.4520 100° East 499 574 40,200  Level Seattle Center
Fri 06:36:22 PM 47.7683 -117.2500 99° East 499 574 40,200 -50 Level Seattle Center
Fri 06:37:22 PM 47.7475 -117.0660 100° East 504 580 40,100  Descending Seattle Center
Fri 06:38:22 PM 47.7219 -116.8600 98° East 504 580 40,200 50 Climbing Seattle Center
Fri 06:39:22 PM 47.7019 -116.6550 93° East 504 580 40,200 -100 Level Seattle Center
Fri 06:40:22 PM 47.6942 -116.4490 91° East 499 574 40,000 -200 Descending Seattle Center
Fri 06:41:22 PM 47.6903 -116.2360 55° Northeast 499 574 39,800  Descending Seattle Center
Fri 06:42:22 PM 47.7683 -116.0710 360° North 475 547 40,000 200 Climbing Seattle Center
Fri 06:43:22 PM 47.9036 -116.0710 303° West 402 463 40,200 150 Climbing Seattle Center
Fri 06:44:22 PM 47.9731 -116.2330 265° West 332 382 40,300 -250 Climbing Seattle Center
Fri 06:45:22 PM 47.9606 -116.4420 260° West 361 415 39,700 -150 Descending Seattle Center
Fri 06:46:22 PM 47.9367 -116.6380 262° West 430 495 40,000 200 Climbing Seattle Center
Fri 06:47:22 PM 47.9153 -116.8530 262° West 468 539 40,100 50 Climbing Seattle Center
Fri 06:48:22 PM 47.8969 -117.0490 265° West 475 547 40,100 50 Level Seattle Center
Fri 06:49:22 PM 47.8847 -117.2470 267° West 482 555 40,200 50 Climbing Seattle Center
Fri 06:50:22 PM 47.8764 -117.4490 268° West 482 555 40,200  Level Seattle Center
Fri 06:51:22 PM 47.8717 -117.6440 268° West 482 555 40,200 -50 Level Seattle Center
Fri 06:52:22 PM 47.8669 -117.8450 272° West 482 555 40,100  Descending Seattle Center
Fri 06:53:22 PM 47.8722 -118.0460 279° West 482 555 40,200  Climbing Seattle Center
Fri 06:54:22 PM 47.8936 -118.2430 281° West 482 555 40,100  Descending Seattle Center
Fri 06:55:22 PM 47.9189 -118.4400 286° West 482 555 40,200 50 Climbing Seattle Center
Fri 06:56:22 PM 47.9564 -118.6370 287° West 487 560 40,200  Level Seattle Center
Fri 06:57:22 PM 47.9956 -118.8310 273° West 487 560 40,200 -50 Level Seattle Center
Fri 06:58:22 PM 48.0031 -119.0300 270° West 487 560 40,100  Descending Seattle Center
Fri 06:59:22 PM 48.0022 -119.2310 270° West 482 555 40,200 -250 Climbing Seattle Center
Fri 07:00:22 PM 48.0031 -119.4290 271° West 476 548 39,600 -1,100 Descending Seattle Center
Fri 07:01:22 PM 48.0056 -119.6210 270° West 476 548 38,000 -1,600 Descending Seattle Center
Fri 07:02:22 PM 48.0056 -119.8080 271° West 471 542 36,400 -1,850 Descending Seattle Center
Fri 07:03:22 PM 48.0075 -119.9810 271° West 442 509 34,300 -2,100 Descending Seattle Center
Fri 07:04:22 PM 48.0092 -120.1510 266° West 424 488 32,200 -2,000 Descending Seattle Center
Fri 07:05:22 PM 48.0022 -120.3190 199° South 413 475 30,300 -2,100 Descending Seattle Center
Fri 07:06:22 PM 47.9083 -120.3670 113° Southeast 305 351 28,000 -2,150 Descending Seattle Center
Fri 07:07:22 PM 47.8653 -120.2180 86° East 196 226 26,000 -1,800 Descending Seattle Center
Fri 07:08:22 PM 47.8722 -120.0510 85° East 264 304 24,400 -1,650 Descending Seattle Center
Fri 07:09:22 PM 47.8808 -119.8910 85° East 327 376 22,700 -2,350 Descending Seattle Center
Fri 07:10:22 PM 47.8892 -119.7360 88° East 356 410 19,700 -3,850 Descending Seattle Center
Fri 07:11:22 PM 47.8931 -119.5910 102° East 361 415 15,000 -2,350 Descending Seattle Center
Fri 07:12:22 PM 47.8719 -119.4490 105° East 354 407 15,000  Level Seattle Center
Fri 07:13:22 PM 47.8403 -119.2790 106° East 384 442 15,000  Level Seattle Center
Fri 07:14:22 PM 47.8058 -119.0970 108° East 423 487 15,000 50 Level Seattle Center
Fri 07:15:22 PM 47.7653 -118.9100 108° East 459 528 15,100 50 Climbing Seattle Center
Fri 07:16:22 PM 47.7242 -118.7190 105° East 477 549 15,100 200 Level Seattle Center
Fri 07:17:22 PM 47.6889 -118.5260 101° East 484 557 15,500 350 Climbing Seattle Center
Fri 07:18:22 PM 47.6617 -118.3260 102° East 479 551 15,800 150 Climbing Seattle Center
Fri 07:19:22 PM 47.6342 -118.1300 120° Southeast 484 557 15,800 100 Level Seattle Center
Fri 07:20:22 PM 47.5714 -117.9660 200° South 453 521 16,000  Climbing Seattle Center
Fri 07:21:22 PM 47.4619 -118.0250 273° West 302 348 15,800 -250 Descending Seattle Center
Fri 07:22:22 PM 47.4689 -118.2180 282° West 265 305 15,500 -100 Descending Seattle Center
Fri 07:23:22 PM 47.4983 -118.4170 286° West 392 451 15,600 150 Climbing Seattle Center
Fri 07:24:22 PM 47.5358 -118.6120 289° West 447 514 15,800 150 Climbing Seattle Center
Fri 07:25:22 PM 47.5792 -118.8020 289° West 467 537 15,900 50 Climbing Seattle Center
Fri 07:26:22 PM 47.6244 -118.9950 291° West 481 554 15,900 -100 Level Seattle Center
Fri 07:27:22 PM 47.6711 -119.1790 290° West 486 559 15,700 -100 Descending Seattle Center
Fri 07:28:22 PM 47.7178 -119.3670 281° West 486 559 15,700 50 Level Seattle Center
Fri 07:29:22 PM 47.7411 -119.5420 275° West 469 540 15,800 -100 Climbing Seattle Center
Fri 07:30:22 PM 47.7517 -119.7090 279° West 439 505 15,500 -400 Descending Seattle Center
Fri 07:31:22 PM 47.7706 -119.8870 276° West 429 494 15,000 -250 Descending Seattle Center
Fri 07:32:22 PM 47.7847 -120.0880 278° West 453 521 15,000  Level Seattle Center
Fri 07:33:22 PM 47.8028 -120.2890 283° West 482 555 15,000 100 Level Seattle Center
Fri 07:34:22 PM 47.8331 -120.4870 358° North 490 564 15,200 -100 Climbing Seattle Center
Fri 07:35:22 PM 47.9347 -120.4910 91° East 313 360 14,800 -550 Descending Seattle Center
Fri 07:36:22 PM 47.9317 -120.3060 97° East 190 219 14,100 -200 Descending Seattle Center
Fri 07:37:22 PM 47.9158 -120.1010 96° East 338 389 14,400 350 Climbing Seattle Center
Fri 07:38:22 PM 47.9014 -119.8940 96° East 419 482 14,800 300 Climbing Seattle Center
Fri 07:39:22 PM 47.8869 -119.6900 99° East 473 544 15,000 50 Climbing Seattle Center
Fri 07:40:22 PM 47.8658 -119.4890 98° East 490 564 14,900 -250 Descending Seattle Center
Fri 07:41:22 PM 47.8486 -119.3100 100° East 469 540 14,500 -350 Descending Seattle Center
Fri 07:42:22 PM 47.8269 -119.1280 103° East 453 521 14,200 -250 Descending Seattle Center
Fri 07:43:22 PM 47.7986 -118.9430 106° East 448 516 14,000 150 Descending Seattle Center
Fri 07:44:22 PM 47.7642 -118.7650 108° East 448 516 14,500 500 Climbing Seattle Center
Fri 07:45:22 PM 47.7247 -118.5810 109° East 459 528 15,000 150 Climbing Seattle Center
Fri 07:46:22 PM 47.6833 -118.4030 120° Southeast 459 528 14,800  Descending Seattle Center
Fri 07:47:22 PM 47.6167 -118.2290 125° Southeast 465 535 15,000 50 Climbing Seattle Center
Fri 07:48:22 PM 47.5417 -118.0680 130° Southeast 472 543 14,900 -50 Descending Seattle Center
Fri 07:49:22 PM 47.4561 -117.9180 133° Southeast 477 549 14,900 50 Level Seattle Center
Fri 07:50:22 PM 47.3642 -117.7740 113° Southeast 482 555 15,000 100 Climbing Seattle Center
Fri 07:51:22 PM 47.3133 -117.5980 39° Northeast 470 541 15,100 50 Climbing Seattle Center
Fri 07:52:22 PM 47.4150 -117.4750 327° Northwest 346 398 15,100  Level Seattle Center
Fri 07:53:22 PM 47.5253 -117.5810 276° West 271 312 15,100 -50 Level Seattle Center
Fri 07:54:22 PM 47.5392 -117.7830 275° West 334 384 15,000 -100 Descending Seattle Center
Fri 07:55:22 PM 47.5508 -117.9820 275° West 432 497 14,900 -50 Descending Seattle Center
Fri 07:56:22 PM 47.5619 -118.1810 275° West 456 525 14,900 -50 Level Seattle Center
Fri 07:57:22 PM 47.5728 -118.3840 277° West 481 554 14,800 -50 Descending Seattle Center
Fri 07:58:22 PM 47.5897 -118.5900 276° West 495 570 14,800 50 Level Seattle Center
Fri 07:59:22 PM 47.6039 -118.7830 276° West 495 570 14,900 100 Climbing Seattle Center
Fri 08:00:22 PM 47.6158 -118.9520 270° West 456 525 15,000 100 Climbing Seattle Center
Fri 08:01:22 PM 47.6147 -119.1370 269° West 443 510 15,100 -100 Climbing Seattle Center
Fri 08:02:22 PM 47.6117 -119.3430 269° West 466 536 14,800 -100 Descending Seattle Center
Fri 08:03:22 PM 47.6100 -119.5400 270° West 483 556 14,900 150 Climbing Seattle Center
Fri 08:04:22 PM 47.6103 -119.7360 271° West 483 556 15,100 100 Climbing Seattle Center
Fri 08:05:22 PM 47.6125 -119.8960 276° West 446 513 15,100 250 Level Seattle Center
Fri 08:06:22 PM 47.6225 -120.0440 286° West 402 463 15,600 450 Climbing Seattle Center
Fri 08:07:22 PM 47.6533 -120.2040 287° West 385 443 16,000 200 Climbing Seattle Center
Fri 08:08:22 PM 47.6858 -120.3620 290° West 396 456 16,000  Level Seattle Center
Fri 08:09:22 PM 47.7244 -120.5220 285° West 401 461 16,000  Level Seattle Center
Fri 08:10:22 PM 47.7547 -120.6860 287° West 401 461 16,000  Level Seattle Center
Fri 08:11:22 PM 47.7867 -120.8440 286° West 406 467 16,000  Level Seattle Center
Fri 08:12:22 PM 47.8144 -120.9900 291° West 393 452 16,000  Level Seattle Center
Fri 08:13:22 PM 47.8503 -121.1270 309° West 371 427 16,000  Level Seattle Center
Fri 08:14:22 PM 47.9072 -121.2330 277° West 356 410 16,000 -500 Level Seattle Center
Fri 08:15:22 PM 47.9181 -121.3760 262° West 343 395 15,000 -1,300 Descending Seattle Center
Fri 08:16:22 PM 47.9056 -121.5150 259° West 344 396 13,400 -2,045 Descending Seattle Center
Fri 08:16:50 PM 47.8961 -121.5890 265° West 306 352 12,000 -2,700 Descending Seattle Center
Fri 08:17:22 PM 47.8933 -121.6380 250° West 325 374 10,700 -1,791 Descending Seattle Center
Fri 08:17:57 PM 47.8733 -121.7210 228° Southwest 297 342 10,000 -700 Descending Seattle Center
Fri 08:18:22 PM 47.8606 -121.7420 225° Southwest 289 333 10,000 -571 Level Seattle Center
Fri 08:18:39 PM 47.8347 -121.7810 218° Southwest 289 333 9,600 -1,000 Descending Seattle Center
Fri 08:19:22 PM 47.8008 -121.8200 224° Southwest 279 321 9,000 -1,075 Descending Seattle Center
Fri 08:19:46 PM 47.7711 -121.8620 217° Southwest 282 325 8,400 -1,200 Descending Seattle Center
Fri 08:20:22 PM 47.7414 -121.8950 191° South 285 328 7,800 -1,082 Descending Seattle Center
Fri 08:20:47 PM 47.7036 -121.9060 185° South 272 313 7,300 -1,100 Descending Seattle Center
Fri 08:21:22 PM 47.6683 -121.9110 194° South 270 311 6,700 -1,309 Descending Seattle Center
Fri 08:21:42 PM 47.6389 -121.9220 184° South 264 304 6,100 -1,500 Descending Seattle Center
Fri 08:22:22 PM 47.5950 -121.9260 187° South 265 305 5,200 -1,082 Descending Seattle Center
Fri 08:22:43 PM 47.5658 -121.9310 183° South 264 304 5,000 -200 Descending Seattle Center
Fri 08:23:22 PM 47.5200 -121.9350 200° South 271 312 5,000  Level Seattle Center
Fri 08:23:49 PM 47.4822 -121.9550 211° Southwest 270 311 5,000  Level Seattle Center
Fri 08:24:22 PM 47.4547 -121.9790 221° Southwest 271 312 5,000  Level Seattle Center
Fri 08:24:44 PM 47.4247 -122.0180 230° Southwest 270 311 5,000 -600 Level Seattle Center
Fri 08:25:22 PM 47.4033 -122.0560 243° Southwest 271 312 4,400 -1,433 Descending Seattle Center
Fri 08:25:51 PM 47.3856 -122.1080 269° West 245 282 3,400 -1,200 Descending Seattle Center
Fri 08:26:22 PM 47.3850 -122.1440 286° West 251 289 3,200 -689 Descending Seattle Center
Fri 08:26:52 PM 47.3944 -122.1910 325° Northwest 208 239 2,700 -800 Descending Seattle Center
Fri 08:27:22 PM 47.4128 -122.2100 333° Northwest 200 230 2,400 -689 Descending Seattle Center
Fri 08:27:53 PM 47.4394 -122.2300 340° North 178 205 2,000 -800 Descending Seattle Center
Fri 08:28:22 PM 47.4558 -122.2390 326° Northwest 157 181 1,600 -885 Descending Seattle Center
Fri 08:28:54 PM 47.4761 -122.2590 335° Northwest 140 161 1,100 -800 Descending Seattle Center
Fri 08:29:22 PM 47.4906 -122.2690 324° Northwest 151 174 800 -806 Descending Seattle Center
Fri 08:30:01 PM 47.5108 -122.2910 345° North 131 151 200 15,200 Descending Seattle Center
Fri 08:30:22 PM 47.5211 -122.2950 322° Northwest 139 160 16,000 11,704 Climbing Seattle Center
Fri 08:31:22 PM 47.5536 -122.3330 325° Northwest 139 160 16,000  Level Seattle Center
Fri 08:32:22 PM 47.5842 -122.3650 325° Northwest 139 160 16,000  Level Seattle Center
Fri 08:33:22 PM 47.6147 -122.3970 324° Northwest 139 160 16,000  Level Seattle Center
Fri 08:34:22 PM 47.6453 -122.4300 324° Northwest 139 160 16,000  Level Seattle Center

Login

Don't have an account? Register now (free) for customized features, flight alerts, and more!